Time;durP1;ratioP1;P1;durP2;ratioP2;P2;SDS_P1;SDS_P2;PMS_P1;PMS_P2;Temp;Humidity;BMP_temperature;BMP_pressure;BME280_temperature;BME280_humidity;BME280_pressure;Samples;Min_cycle;Max_cycle;Signal;HPM_P1;HPM_P2
2024/04/12 00:08:30;;;;;;;4.78;0.85;;;;;;;;;;22399311;26;20042;-44
2024/04/12 00:18:35;;;;;;;10.45;1.58;;;;;;;;;;22412837;26;20430;-44
2024/04/12 00:28:37;;;;;;;6.95;0.75;;;;;;;;;;22389763;26;20019;-45
2024/04/12 00:38:41;;;;;;;7.03;1.42;;;;;;;;;;22410351;26;20015;-44
2024/04/12 00:48:44;;;;;;;4.53;0.80;;;;;;;;;;22413726;26;20003;-44
2024/04/12 00:58:47;;;;;;;6.78;1.40;;;;;;;;;;22391391;26;20015;-45
2024/04/12 01:09:11;;;;;;;4.30;1.30;;;;;;;;;;22410420;26;20022;-43
2024/04/12 01:19:14;;;;;;;6.85;1.15;;;;;;;;;;22391695;26;20018;-45
2024/04/12 01:29:16;;;;;;;5.38;1.77;;;;;;;;;;22408216;26;20365;-45
2024/04/12 01:39:18;;;;;;;11.77;1.35;;;;;;;;;;22383902;26;19999;-46
2024/04/12 01:49:22;;;;;;;5.32;0.85;;;;;;;;;;22407046;26;20042;-45
2024/04/12 01:59:24;;;;;;;5.57;1.15;;;;;;;;;;22405770;26;20430;-47
2024/04/12 02:09:28;;;;;;;4.25;0.85;;;;;;;;;;22404431;26;20475;-47
2024/04/12 02:19:30;;;;;;;8.00;1.47;;;;;;;;;;22407780;26;20354;-45
2024/04/12 02:29:34;;;;;;;7.47;0.60;;;;;;;;;;22406939;26;20003;-46
2024/04/12 02:39:40;;;;;;;5.10;0.70;;;;;;;;;;22406971;26;20434;-44
2024/04/12 02:49:43;;;;;;;3.97;0.80;;;;;;;;;;22402925;26;20131;-44
2024/04/12 03:00:25;;;;;;;3.45;0.65;;;;;;;;;;22381378;26;20011;-44
2024/04/12 03:10:32;;;;;;;2.75;0.47;;;;;;;;;;22403491;26;20007;-44
2024/04/12 03:20:35;;;;;;;2.28;0.60;;;;;;;;;;22400083;26;20088;-45
2024/04/12 03:30:40;;;;;;;3.67;0.50;;;;;;;;;;22402180;26;20315;-44
2024/04/12 03:40:45;;;;;;;2.35;0.50;;;;;;;;;;22387123;26;20401;-43
2024/04/12 03:50:59;;;;;;;2.85;0.70;;;;;;;;;;22398434;26;20015;-45
2024/04/12 04:01:02;;;;;;;2.53;0.70;;;;;;;;;;22405897;26;20018;-44
2024/04/12 04:11:07;;;;;;;1.60;0.60;;;;;;;;;;22382540;26;20362;-45
2024/04/12 04:21:09;;;;;;;5.40;0.80;;;;;;;;;;22402694;26;20039;-44
2024/04/12 04:31:10;;;;;;;7.97;0.85;;;;;;;;;;22396595;26;19999;-43
2024/04/12 04:41:12;;;;;;;4.85;0.75;;;;;;;;;;22382189;26;20430;-46
2024/04/12 04:51:14;;;;;;;3.50;1.02;;;;;;;;;;22395874;26;20341;-46
2024/04/12 05:01:17;;;;;;;3.95;0.75;;;;;;;;;;22382889;26;20014;-46
2024/04/12 05:11:20;;;;;;;5.22;0.88;;;;;;;;;;22408528;26;20389;-45
2024/04/12 05:21:23;;;;;;;4.32;0.82;;;;;;;;;;22409223;26;20674;-44
2024/04/12 05:31:29;;;;;;;6.32;0.80;;;;;;;;;;22407989;26;20138;-45
2024/04/12 05:41:32;;;;;;;6.28;1.08;;;;;;;;;;22384745;26;20346;-45
2024/04/12 05:51:33;;;;;;;8.77;1.58;;;;;;;;;;22385120;26;20031;-45
2024/04/12 06:01:43;;;;;;;5.93;1.30;;;;;;;;;;22406890;26;20003;-44
2024/04/12 06:11:45;;;;;;;9.27;1.50;;;;;;;;;;22405523;26;20000;-45
2024/04/12 06:21:48;;;;;;;10.05;2.60;;;;;;;;;;22373665;26;20342;-45
2024/04/12 06:31:51;;;;;;;4.65;1.23;;;;;;;;;;22404452;26;20017;-45
2024/04/12 06:41:53;;;;;;;6.10;1.52;;;;;;;;;;22404749;26;20007;-45
2024/04/12 06:52:11;;;;;;;7.80;1.45;;;;;;;;;;22403363;26;20426;-45
2024/04/12 07:02:14;;;;;;;8.98;2.00;;;;;;;;;;22401838;26;20369;-46
2024/04/12 07:12:19;;;;;;;12.35;1.98;;;;;;;;;;22405158;26;20089;-46
2024/04/12 07:22:21;;;;;;;9.57;1.92;;;;;;;;;;22340596;26;20187;-46
2024/04/12 07:32:23;;;;;;;5.78;2.13;;;;;;;;;;22394524;26;20038;-45
2024/04/12 07:42:26;;;;;;;10.02;3.33;;;;;;;;;;22381443;26;20387;-43
2024/04/12 07:52:28;;;;;;;15.10;3.78;;;;;;;;;;22402050;26;20012;-44
2024/04/12 08:02:35;;;;;;;11.55;3.70;;;;;;;;;;22401064;26;20395;-44
2024/04/12 08:12:36;;;;;;;17.25;3.42;;;;;;;;;;22399836;26;20015;-55
2024/04/12 08:22:38;;;;;;;14.55;3.38;;;;;;;;;;22398758;26;20080;-56
2024/04/12 08:32:48;;;;;;;9.98;3.05;;;;;;;;;;22401780;26;20035;-53
2024/04/12 08:42:54;;;;;;;12.90;2.58;;;;;;;;;;22412467;26;20043;-56
2024/04/12 08:52:57;;;;;;;8.93;2.47;;;;;;;;;;22412928;26;20008;-54
2024/04/12 09:03:04;;;;;;;10.02;2.13;;;;;;;;;;22372394;26;20032;-53
2024/04/12 09:13:09;;;;;;;7.15;2.20;;;;;;;;;;22365744;26;20000;-53
2024/04/12 09:23:15;;;;;;;6.80;1.15;;;;;;;;;;22410824;26;20008;-52
2024/04/12 09:33:21;;;;;;;8.02;1.67;;;;;;;;;;22411657;26;20434;-53
2024/04/12 09:43:28;;;;;;;11.75;1.60;;;;;;;;;;22393581;26;20844;-53
2024/04/12 10:45:17;;;;;;;7.63;1.83;;;;;;;;;;22399843;26;20003;-54
2024/04/12 10:55:19;;;;;;;6.95;1.40;;;;;;;;;;22403466;26;20022;-54
2024/04/12 11:35:45;;;;;;;9.98;1.92;;;;;;;;;;22404165;26;20018;-54
2024/04/12 11:45:48;;;;;;;6.50;1.35;;;;;;;;;;22384542;26;20077;-54
2024/04/12 11:55:50;;;;;;;7.10;1.48;;;;;;;;;;22402928;26;20015;-56
2024/04/12 12:05:53;;;;;;;7.32;1.83;;;;;;;;;;22403836;26;20004;-53
2024/04/12 12:15:55;;;;;;;6.73;1.57;;;;;;;;;;22394194;26;20022;-54
2024/04/12 12:25:58;;;;;;;6.22;1.52;;;;;;;;;;22414427;26;20007;-51
2024/04/12 12:36:05;;;;;;;9.53;2.20;;;;;;;;;;22412517;26;20080;-52
2024/04/12 12:46:07;;;;;;;9.35;1.33;;;;;;;;;;22412207;26;19999;-54
2024/04/12 12:56:09;;;;;;;7.43;1.70;;;;;;;;;;22412439;26;20357;-54
2024/04/12 13:06:21;;;;;;;5.30;1.13;;;;;;;;;;22410119;26;20022;-53
2024/04/12 13:38:12;;;;;;;4.05;1.10;;;;;;;;;;22409531;26;20325;-56
2024/04/12 13:58:34;;;;;;;5.88;1.42;;;;;;;;;;22407327;26;20003;-52
2024/04/12 14:08:35;;;;;;;9.00;1.45;;;;;;;;;;22384746;26;20403;-53
2024/04/12 14:18:38;;;;;;;2.33;0.88;;;;;;;;;;22377994;26;20004;-52
2024/04/12 14:28:40;;;;;;;3.72;1.05;;;;;;;;;;22379305;26;20011;-52
2024/04/12 14:38:42;;;;;;;5.32;0.90;;;;;;;;;;22404825;26;20008;-52
2024/04/12 14:48:44;;;;;;;5.00;1.10;;;;;;;;;;22397168;26;19999;-51
2024/04/12 14:58:47;;;;;;;3.63;1.50;;;;;;;;;;22359408;26;20018;-52
2024/04/12 16:11:10;;;;;;;4.40;1.05;;;;;;;;;;22379226;26;20014;-51
2024/04/12 16:21:13;;;;;;;4.03;1.35;;;;;;;;;;22397865;26;20343;-52
2024/04/12 16:31:15;;;;;;;5.07;1.17;;;;;;;;;;22373488;26;20169;-52
2024/04/12 16:41:18;;;;;;;6.38;1.50;;;;;;;;;;22397430;26;20015;-52
2024/04/12 16:51:20;;;;;;;7.28;1.20;;;;;;;;;;22373665;26;20318;-52
2024/04/12 17:01:22;;;;;;;8.52;1.90;;;;;;;;;;22411281;26;20325;-51
2024/04/12 17:11:25;;;;;;;7.07;1.70;;;;;;;;;;22411101;26;20293;-52
2024/04/12 17:21:39;;;;;;;12.23;2.75;;;;;;;;;;22411500;26;20011;-51
2024/04/12 17:31:43;;;;;;;7.50;1.13;;;;;;;;;;22410077;26;20008;-52
2024/04/12 17:41:45;;;;;;;6.75;1.08;;;;;;;;;;22407034;26;20003;-51
2024/04/12 17:51:47;;;;;;;6.80;1.52;;;;;;;;;;22408983;26;20019;-51
2024/04/12 18:01:50;;;;;;;10.73;1.50;;;;;;;;;;22408897;26;20396;-51
2024/04/12 18:11:52;;;;;;;11.07;1.50;;;;;;;;;;22401832;26;20039;-51
2024/04/12 18:21:55;;;;;;;7.60;1.92;;;;;;;;;;22406054;26;20768;-51
2024/04/12 18:31:58;;;;;;;14.57;2.03;;;;;;;;;;22386395;26;20019;-51
2024/04/12 18:45:06;;;;;;;8.10;1.83;;;;;;;;;;22379785;26;20000;-51
2024/04/12 18:52:37;;;;;;;10.93;2.78;;;;;;;;;;22332656;26;20008;-52
2024/04/12 19:02:38;;;;;;;8.50;1.98;;;;;;;;;;22367885;26;20014;-51
2024/04/12 19:12:40;;;;;;;10.70;2.65;;;;;;;;;;22406196;26;20096;-52
2024/04/12 19:22:44;;;;;;;9.02;2.60;;;;;;;;;;22354874;26;20003;-54
2024/04/12 19:32:45;;;;;;;10.15;2.40;;;;;;;;;;22385981;26;20007;-52
2024/04/12 19:42:47;;;;;;;7.35;2.85;;;;;;;;;;22382999;26;20015;-51
2024/04/12 19:52:50;;;;;;;9.32;3.63;;;;;;;;;;22372908;26;20005;-51
2024/04/12 20:03:23;;;;;;;11.10;2.85;;;;;;;;;;22398621;26;20011;-52
2024/04/12 20:13:25;;;;;;;10.00;4.78;;;;;;;;;;22399760;26;20328;-52
2024/04/12 20:23:28;;;;;;;14.63;4.53;;;;;;;;;;22400036;26;20335;-52
2024/04/12 20:44:06;;;;;;;13.90;4.88;;;;;;;;;;22399581;26;20003;-54
2024/04/12 20:54:07;;;;;;;11.40;4.70;;;;;;;;;;22412795;26;20032;-51
2024/04/12 21:04:09;;;;;;;8.98;4.53;;;;;;;;;;22413074;26;20004;-53
2024/04/12 21:14:11;;;;;;;10.88;3.88;;;;;;;;;;22411492;26;20065;-52
2024/04/12 21:24:14;;;;;;;12.35;4.72;;;;;;;;;;22386565;26;20015;-50
2024/04/12 21:34:16;;;;;;;14.88;5.57;;;;;;;;;;22410387;26;20022;-53
2024/04/12 21:44:18;;;;;;;20.38;8.15;;;;;;;;;;22408481;26;20053;-52
2024/04/12 21:54:19;;;;;;;21.95;7.00;;;;;;;;;;22409407;26;20015;-51
2024/04/12 22:04:23;;;;;;;19.67;6.75;;;;;;;;;;22409105;26;20010;-51
2024/04/12 22:14:24;;;;;;;14.40;6.53;;;;;;;;;;22384926;26;20015;-51
2024/04/12 22:24:26;;;;;;;14.55;6.78;;;;;;;;;;22408886;26;20014;-53
2024/04/12 22:34:27;;;;;;;22.48;9.02;;;;;;;;;;22383096;26;20011;-44
2024/04/12 22:44:29;;;;;;;16.23;7.20;;;;;;;;;;22389110;26;20408;-45
2024/04/12 22:54:30;;;;;;;14.60;6.85;;;;;;;;;;22403342;26;20008;-44
2024/04/12 23:04:33;;;;;;;15.27;6.25;;;;;;;;;;22398640;26;20022;-45
2024/04/12 23:14:36;;;;;;;20.13;7.78;;;;;;;;;;22404011;26;20003;-45
2024/04/12 23:24:39;;;;;;;17.53;6.63;;;;;;;;;;22403083;26;20022;-45
2024/04/12 23:34:42;;;;;;;13.15;6.63;;;;;;;;;;22400734;26;20004;-46
2024/04/12 23:44:43;;;;;;;13.18;5.30;;;;;;;;;;22400561;26;20084;-47
2024/04/12 23:54:46;;;;;;;7.35;3.25;;;;;;;;;;22400111;26;20004;-47
